Time;durP1;ratioP1;P1;durP2;ratioP2;P2;SDS_P1;SDS_P2;PMS_P1;PMS_P2;Temp;Humidity;BMP_temperature;BMP_pressure;BME280_temperature;BME280_humidity;BME280_pressure;Samples;Min_cycle;Max_cycle;Signal;HPM_P1;HPM_P2
2022/04/08 00:01:00;;;;;;;3.72;1.50;;;7.60;48.70;;;;;;5074572;28;20520;-74
2022/04/08 00:03:26;;;;;;;10.35;2.03;;;7.60;49.00;;;;;;5074171;28;20383;-75
2022/04/08 00:05:52;;;;;;;4.45;1.40;;;7.40;49.80;;;;;;5074119;28;20376;-74
2022/04/08 00:08:19;;;;;;;6.15;1.40;;;7.40;49.70;;;;;;5073681;28;20383;-74
2022/04/08 00:10:44;;;;;;;8.32;1.58;;;7.50;50.20;;;;;;5073218;28;20913;-74
2022/04/08 00:13:10;;;;;;;5.53;1.40;;;7.50;49.80;;;;;;5055107;28;20388;-75
2022/04/08 00:15:38;;;;;;;5.50;1.50;;;7.50;49.60;;;;;;5073571;28;20415;-74
2022/04/08 00:18:04;;;;;;;6.18;1.65;;;7.50;50.20;;;;;;5055230;28;20387;-74
2022/04/08 00:20:31;;;;;;;5.90;1.40;;;7.40;51.20;;;;;;5073122;28;20888;-75
2022/04/08 00:22:57;;;;;;;5.40;1.50;;;7.40;52.50;;;;;;5073064;28;20441;-74
2022/04/08 00:25:22;;;;;;;9.30;2.00;;;7.30;52.10;;;;;;5073104;28;20383;-75
2022/04/08 00:27:48;;;;;;;6.97;1.63;;;7.40;52.20;;;;;;5072934;28;20815;-75
2022/04/08 00:30:13;;;;;;;5.43;1.80;;;7.30;52.50;;;;;;5073297;28;20401;-74
2022/04/08 00:32:39;;;;;;;8.33;1.47;;;7.30;53.60;;;;;;5073060;28;20474;-74
2022/04/08 00:35:05;;;;;;;9.80;2.20;;;7.40;53.30;;;;;;5072937;28;20396;-75
2022/04/08 00:37:31;;;;;;;10.80;1.73;;;7.30;54.00;;;;;;5055494;28;20782;-72
2022/04/08 00:39:56;;;;;;;13.35;2.35;;;7.20;55.10;;;;;;5073110;28;20459;-75
2022/04/08 00:42:22;;;;;;;5.95;2.30;;;7.20;55.10;;;;;;5073065;28;20367;-74
2022/04/08 00:44:47;;;;;;;8.57;1.90;;;7.20;55.50;;;;;;5060970;28;20382;-74
2022/04/08 00:47:13;;;;;;;5.07;1.75;;;7.10;56.40;;;;;;5053447;28;20475;-74
2022/04/08 00:49:39;;;;;;;7.47;1.80;;;7.00;56.90;;;;;;5057560;28;20404;-74
2022/04/08 00:52:05;;;;;;;6.57;2.00;;;7.00;57.80;;;;;;5055021;28;20402;-74
2022/04/08 00:54:32;;;;;;;14.73;2.78;;;7.00;58.30;;;;;;5072036;28;20861;-75
2022/04/08 00:56:58;;;;;;;6.78;1.90;;;7.00;58.10;;;;;;5073073;28;20786;-75
2022/04/08 00:59:27;;;;;;;6.30;2.00;;;6.90;59.30;;;;;;5072512;28;20375;-74
2022/04/08 01:01:53;;;;;;;6.95;2.05;;;6.90;59.80;;;;;;5072437;28;20415;-75
2022/04/08 01:04:21;;;;;;;10.87;2.20;;;6.90;60.20;;;;;;5072223;28;20404;-74
2022/04/08 01:06:47;;;;;;;10.25;2.60;;;6.80;60.00;;;;;;5072553;28;20379;-74
2022/04/08 01:09:12;;;;;;;11.88;2.72;;;6.80;61.00;;;;;;5072763;28;20438;-75
2022/04/08 01:11:38;;;;;;;9.65;2.70;;;6.80;61.10;;;;;;5054666;28;20423;-74
2022/04/08 01:14:11;;;;;;;7.93;2.10;;;6.80;60.60;;;;;;5072227;28;20388;-74
2022/04/08 01:16:37;;;;;;;10.77;2.90;;;6.90;59.90;;;;;;5072063;28;20472;-73
2022/04/08 01:19:03;;;;;;;9.05;2.33;;;6.90;60.00;;;;;;5072427;28;20376;-73
2022/04/08 01:21:29;;;;;;;10.25;2.67;;;7.00;59.80;;;;;;5054276;28;20387;-75
2022/04/08 01:23:56;;;;;;;7.75;2.60;;;7.00;59.70;;;;;;5072520;28;20380;-74
2022/04/08 01:26:22;;;;;;;9.00;2.70;;;7.00;59.00;;;;;;5072180;28;20384;-75
2022/04/08 01:28:48;;;;;;;13.93;2.70;;;7.00;59.10;;;;;;5072097;28;20432;-74
2022/04/08 01:31:15;;;;;;;7.80;2.30;;;7.00;59.40;;;;;;5072146;28;20387;-74
2022/04/08 01:33:41;;;;;;;13.07;2.60;;;7.00;59.70;;;;;;5072504;28;20845;-75
2022/04/08 01:36:06;;;;;;;7.40;2.40;;;6.90;60.10;;;;;;5072053;28;20403;-74
2022/04/08 01:38:32;;;;;;;7.75;3.05;;;6.80;59.80;;;;;;5054210;28;20384;-74
2022/04/08 01:40:58;;;;;;;8.80;2.30;;;6.70;61.30;;;;;;5072374;28;20380;-74
2022/04/08 01:43:24;;;;;;;11.25;2.72;;;6.60;62.60;;;;;;5073315;28;20382;-74
2022/04/08 01:45:49;;;;;;;10.90;2.80;;;6.60;63.30;;;;;;5076905;28;20383;-74
2022/04/08 01:48:15;;;;;;;10.52;2.63;;;6.60;63.60;;;;;;5089535;22;21656;-74
2022/04/08 01:50:41;;;;;;;7.68;2.58;;;6.50;64.30;;;;;;5073476;28;20378;-76
2022/04/08 01:53:06;;;;;;;11.60;2.50;;;6.60;64.10;;;;;;5090979;28;20382;-74
2022/04/08 01:55:32;;;;;;;13.90;2.90;;;6.50;64.70;;;;;;5091275;28;20468;-75
2022/04/08 01:57:57;;;;;;;14.10;2.80;;;6.50;65.40;;;;;;5091467;28;20374;-75
2022/04/08 02:00:23;;;;;;;9.63;2.60;;;6.50;64.60;;;;;;5092801;28;20378;-76
2022/04/08 02:02:49;;;;;;;13.20;2.60;;;6.60;63.20;;;;;;5076212;28;20386;-75
2022/04/08 02:05:14;;;;;;;10.87;2.53;;;6.70;62.80;;;;;;5093016;28;20778;-76
2022/04/08 02:07:40;;;;;;;7.80;2.53;;;6.70;62.70;;;;;;5093955;28;20634;-76
2022/04/08 02:10:06;;;;;;;16.60;3.20;;;6.70;62.20;;;;;;5094658;28;20378;-76
2022/04/08 02:12:32;;;;;;;14.90;3.00;;;6.70;61.10;;;;;;5094099;28;20385;-75
2022/04/08 02:14:57;;;;;;;10.38;3.50;;;6.60;62.60;;;;;;5093744;28;20873;-76
2022/04/08 02:17:25;;;;;;;11.77;2.60;;;6.60;62.70;;;;;;5094771;28;20444;-76
2022/04/08 02:19:52;;;;;;;13.37;3.40;;;6.50;62.70;;;;;;5094883;28;20510;-76
2022/04/08 02:22:18;;;;;;;11.57;2.90;;;6.40;63.00;;;;;;5091993;28;20374;-76
2022/04/08 02:24:46;;;;;;;13.75;3.05;;;6.50;63.40;;;;;;5091908;28;20929;-76
2022/04/08 02:27:12;;;;;;;22.70;3.50;;;6.50;64.10;;;;;;5091452;28;20389;-76
2022/04/08 02:29:37;;;;;;;14.80;3.70;;;6.50;64.10;;;;;;5091571;28;20434;-76
2022/04/08 02:32:04;;;;;;;13.97;3.33;;;6.60;62.90;;;;;;5091681;28;20392;-76
2022/04/08 02:34:30;;;;;;;11.93;3.20;;;6.60;61.90;;;;;;5092707;28;20439;-76
2022/04/08 02:36:55;;;;;;;13.47;3.27;;;6.60;61.90;;;;;;5093779;28;20401;-75
2022/04/08 02:39:21;;;;;;;10.60;2.90;;;6.60;62.70;;;;;;5095457;28;20384;-75
2022/04/08 02:41:47;;;;;;;13.27;3.03;;;6.60;61.40;;;;;;5078217;28;20386;-76
2022/04/08 02:44:12;;;;;;;12.05;3.15;;;6.60;62.40;;;;;;5096676;28;20384;-76
2022/04/08 02:46:38;;;;;;;17.50;3.88;;;6.70;62.10;;;;;;5095806;28;20442;-75
2022/04/08 02:49:03;;;;;;;12.10;3.20;;;6.60;62.50;;;;;;5097221;28;20398;-74
2022/04/08 02:51:29;;;;;;;14.20;3.55;;;6.70;62.00;;;;;;5098142;28;20404;-74
2022/04/08 02:53:55;;;;;;;11.85;3.15;;;6.70;62.10;;;;;;5098008;28;20431;-74
2022/04/08 02:56:21;;;;;;;12.75;3.65;;;6.70;61.10;;;;;;5095759;28;20398;-75
2022/04/08 02:58:49;;;;;;;11.53;3.03;;;6.70;61.30;;;;;;5094800;28;20808;-75
2022/04/08 03:01:16;;;;;;;11.57;3.22;;;6.80;59.40;;;;;;5092154;28;20384;-75
2022/04/08 03:03:41;;;;;;;13.80;3.20;;;6.80;59.00;;;;;;5091385;28;20400;-76
2022/04/08 03:06:07;;;;;;;14.80;3.60;;;6.80;58.60;;;;;;5091608;28;20391;-76
2022/04/08 03:08:33;;;;;;;12.55;2.88;;;6.70;59.80;;;;;;5073024;28;20381;-75
2022/04/08 03:10:58;;;;;;;13.15;3.45;;;6.70;60.20;;;;;;5092059;28;20774;-75
2022/04/08 03:13:25;;;;;;;14.70;4.00;;;6.70;58.90;;;;;;5091661;28;20377;-75
2022/04/08 03:15:51;;;;;;;13.90;3.70;;;6.70;58.90;;;;;;5091166;28;20406;-75
2022/04/08 03:18:16;;;;;;;14.88;3.28;;;6.60;58.40;;;;;;5094262;28;20789;-74
2022/04/08 03:20:42;;;;;;;13.13;3.87;;;6.60;59.50;;;;;;5094701;28;20414;-75
2022/04/08 03:23:08;;;;;;;15.00;3.47;;;6.50;61.00;;;;;;5094849;28;20382;-75
2022/04/08 03:25:34;;;;;;;13.13;3.40;;;6.50;60.20;;;;;;5095098;28;20390;-75
2022/04/08 03:28:00;;;;;;;16.23;3.50;;;6.50;60.70;;;;;;5094810;28;20382;-75
2022/04/08 03:30:27;;;;;;;8.88;3.17;;;6.40;61.30;;;;;;5076372;28;20435;-75
2022/04/08 03:32:54;;;;;;;20.02;3.60;;;6.30;63.40;;;;;;5095048;28;20386;-76
2022/04/08 03:35:19;;;;;;;13.40;3.80;;;6.30;63.40;;;;;;5075980;28;20406;-74
2022/04/08 03:37:45;;;;;;;14.25;3.40;;;6.20;63.50;;;;;;5094072;28;20388;-76
2022/04/08 03:40:11;;;;;;;15.30;4.00;;;6.20;63.80;;;;;;5096618;28;20398;-75
2022/04/08 03:42:37;;;;;;;16.67;3.40;;;6.20;64.60;;;;;;5101427;28;20461;-74
2022/04/08 03:45:03;;;;;;;22.47;4.30;;;6.20;64.50;;;;;;5102359;28;20406;-75
2022/04/08 03:47:28;;;;;;;13.80;3.92;;;6.20;64.80;;;;;;5103216;28;20390;-74
2022/04/08 03:49:54;;;;;;;14.30;4.20;;;6.20;64.60;;;;;;5102234;28;20401;-74
2022/04/08 03:52:19;;;;;;;24.42;4.75;;;6.10;65.80;;;;;;5083370;28;20395;-74
2022/04/08 03:54:45;;;;;;;22.95;4.40;;;6.10;66.70;;;;;;5083304;28;20399;-75
2022/04/08 03:57:10;;;;;;;18.08;4.13;;;6.00;66.20;;;;;;5099867;28;20396;-75
2022/04/08 03:59:37;;;;;;;13.93;4.80;;;6.00;66.10;;;;;;5098869;28;20406;-76
2022/04/08 04:02:05;;;;;;;18.70;4.85;;;6.00;67.30;;;;;;5075844;28;20385;-76
2022/04/08 04:04:31;;;;;;;19.83;4.50;;;5.90;68.10;;;;;;5093568;28;20378;-76
2022/04/08 04:06:57;;;;;;;16.73;4.80;;;5.80;69.00;;;;;;5093316;28;20390;-75
2022/04/08 04:09:22;;;;;;;17.80;4.60;;;5.80;69.30;;;;;;5074861;28;20455;-74
2022/04/08 04:11:48;;;;;;;14.63;4.80;;;5.90;67.30;;;;;;5093274;28;20454;-74
2022/04/08 04:14:14;;;;;;;18.00;4.97;;;5.90;66.10;;;;;;5093228;28;20797;-75
2022/04/08 04:16:40;;;;;;;18.13;5.20;;;5.90;66.30;;;;;;5093205;28;21085;-76
2022/04/08 04:19:06;;;;;;;19.03;4.90;;;5.80;66.90;;;;;;5092870;28;20972;-74
2022/04/08 04:21:32;;;;;;;15.87;5.10;;;5.90;66.80;;;;;;5074936;28;20382;-75
2022/04/08 04:23:58;;;;;;;16.90;6.00;;;5.80;66.70;;;;;;5093074;28;20377;-75
2022/04/08 04:26:24;;;;;;;14.48;5.55;;;5.80;68.10;;;;;;5092984;28;20891;-75
2022/04/08 04:28:49;;;;;;;18.08;4.93;;;5.80;69.10;;;;;;5091742;28;20882;-78
2022/04/08 04:31:15;;;;;;;12.27;5.27;;;5.80;68.30;;;;;;5074617;28;20557;-75
2022/04/08 04:33:40;;;;;;;16.50;5.73;;;5.80;69.20;;;;;;5075315;28;20378;-76
2022/04/08 04:36:06;;;;;;;15.87;5.57;;;5.80;70.10;;;;;;5092956;28;20397;-76
2022/04/08 04:38:32;;;;;;;20.63;5.80;;;5.80;70.10;;;;;;5093486;28;20386;-76
2022/04/08 04:40:57;;;;;;;15.77;5.30;;;5.80;70.10;;;;;;5093188;28;20439;-75
2022/04/08 04:43:23;;;;;;;14.80;5.60;;;5.70;71.00;;;;;;5093253;28;20382;-76
2022/04/08 04:45:49;;;;;;;14.33;5.47;;;5.70;71.70;;;;;;5092973;28;20397;-76
2022/04/08 04:48:14;;;;;;;13.40;5.25;;;5.60;72.50;;;;;;5093463;28;20474;-75
2022/04/08 04:50:40;;;;;;;17.40;5.68;;;5.60;73.30;;;;;;5093188;28;20382;-75
2022/04/08 04:53:06;;;;;;;15.98;5.22;;;5.40;74.60;;;;;;5093129;28;20401;-75
2022/04/08 04:55:32;;;;;;;13.43;5.40;;;5.50;75.90;;;;;;5094770;28;20402;-77
2022/04/08 04:57:58;;;;;;;16.05;5.47;;;5.50;74.00;;;;;;5094096;28;20370;-75
2022/04/08 05:00:24;;;;;;;17.80;5.20;;;5.50;75.90;;;;;;5092558;28;20386;-74
2022/04/08 05:02:49;;;;;;;17.27;5.40;;;5.60;74.10;;;;;;5092170;28;20435;-75
2022/04/08 05:05:15;;;;;;;18.08;5.20;;;5.70;72.40;;;;;;5092350;28;20392;-75
2022/04/08 05:07:41;;;;;;;13.70;5.20;;;5.70;71.80;;;;;;5092382;28;20375;-77
2022/04/08 05:10:08;;;;;;;16.73;5.57;;;5.70;71.50;;;;;;5092463;28;20427;-75
2022/04/08 05:12:37;;;;;;;15.25;5.65;;;5.80;70.80;;;;;;5092966;28;20405;-74
2022/04/08 05:15:07;;;;;;;14.85;5.55;;;5.70;71.50;;;;;;5092492;28;20488;-76
2022/04/08 05:17:38;;;;;;;16.88;6.25;;;5.60;73.90;;;;;;5092963;28;20410;-75
2022/04/08 05:20:05;;;;;;;15.50;6.35;;;5.70;72.90;;;;;;5092549;28;20736;-76
2022/04/08 05:22:34;;;;;;;11.43;5.55;;;5.70;72.10;;;;;;5092920;28;20842;-75
2022/04/08 05:25:00;;;;;;;17.33;6.80;;;5.70;73.30;;;;;;5093324;28;20382;-74
2022/04/08 05:27:27;;;;;;;14.23;6.50;;;5.70;73.60;;;;;;5078905;28;20389;-75
2022/04/08 05:29:52;;;;;;;15.95;7.18;;;5.70;74.40;;;;;;5074121;28;20383;-74
2022/04/08 05:32:18;;;;;;;20.55;7.70;;;5.80;73.20;;;;;;5092918;28;20397;-75
2022/04/08 05:34:43;;;;;;;20.17;7.55;;;6.00;71.20;;;;;;5093020;28;20870;-75
2022/04/08 05:37:09;;;;;;;21.50;8.13;;;6.00;71.20;;;;;;5093591;28;20382;-76
2022/04/08 05:39:35;;;;;;;17.52;9.25;;;6.20;70.80;;;;;;5077329;28;20378;-75
2022/04/08 05:42:00;;;;;;;17.13;9.30;;;6.40;67.80;;;;;;5100123;28;20429;-75
2022/04/08 05:44:26;;;;;;;20.87;10.73;;;6.60;66.40;;;;;;5096089;28;20382;-75
2022/04/08 05:46:52;;;;;;;22.87;11.50;;;6.80;62.90;;;;;;5101484;28;20412;-75
2022/04/08 05:49:17;;;;;;;22.13;11.77;;;6.90;59.40;;;;;;5100120;28;20401;-75
2022/04/08 05:51:45;;;;;;;19.67;11.20;;;7.10;59.40;;;;;;5093413;28;20460;-76
2022/04/08 05:54:11;;;;;;;26.10;11.40;;;7.10;57.30;;;;;;5096728;28;20732;-76
2022/04/08 05:56:37;;;;;;;22.63;11.07;;;7.10;56.80;;;;;;5095973;28;20431;-75
2022/04/08 05:59:02;;;;;;;20.47;12.00;;;7.20;57.10;;;;;;5095900;28;20723;-75
2022/04/08 06:01:28;;;;;;;18.13;11.30;;;7.10;57.70;;;;;;5093782;28;20382;-75
2022/04/08 06:03:54;;;;;;;22.40;11.13;;;7.20;57.70;;;;;;5093212;28;20386;-75
2022/04/08 06:06:20;;;;;;;20.33;12.18;;;7.30;56.80;;;;;;5074741;28;20384;-75
2022/04/08 06:08:46;;;;;;;21.67;12.00;;;7.50;56.20;;;;;;5091986;28;20407;-76
2022/04/08 06:11:11;;;;;;;22.70;11.57;;;7.60;55.40;;;;;;5073342;28;20439;-75
2022/04/08 06:13:37;;;;;;;20.30;10.57;;;7.60;54.10;;;;;;5091747;28;20390;-76
2022/04/08 06:16:03;;;;;;;23.77;11.97;;;7.70;52.60;;;;;;5091963;28;20886;-77
2022/04/08 06:18:28;;;;;;;19.35;11.55;;;7.70;52.50;;;;;;5092060;28;20373;-75
2022/04/08 06:20:54;;;;;;;19.30;10.80;;;7.80;52.50;;;;;;5091435;28;20385;-75
2022/04/08 06:23:20;;;;;;;30.10;11.00;;;7.90;51.70;;;;;;5092158;28;20889;-75
2022/04/08 06:25:45;;;;;;;18.05;11.10;;;7.80;51.20;;;;;;5091993;28;20389;-76
2022/04/08 06:28:11;;;;;;;22.55;11.13;;;7.80;52.00;;;;;;5092246;28;20377;-76
2022/04/08 06:30:39;;;;;;;16.42;10.90;;;7.90;51.10;;;;;;5091687;28;20386;-76
2022/04/08 06:33:07;;;;;;;21.15;10.75;;;8.00;49.60;;;;;;5091368;28;20778;-76
2022/04/08 06:35:33;;;;;;;21.58;10.95;;;8.00;49.00;;;;;;5057165;28;20401;-76
2022/04/08 06:38:04;;;;;;;17.90;10.45;;;8.00;48.80;;;;;;5091294;28;20409;-75
2022/04/08 06:40:35;;;;;;;23.17;11.60;;;8.10;46.80;;;;;;5091352;28;20402;-75
2022/04/08 06:43:02;;;;;;;17.17;11.77;;;8.10;47.70;;;;;;5073309;28;20431;-76
2022/04/08 06:45:28;;;;;;;22.60;12.00;;;7.90;49.60;;;;;;5091068;28;20438;-77
2022/04/08 06:47:54;;;;;;;18.58;10.70;;;7.80;50.70;;;;;;5090893;28;20382;-76
2022/04/08 06:50:20;;;;;;;17.70;11.20;;;7.70;51.20;;;;;;5091757;28;20381;-76
2022/04/08 06:52:47;;;;;;;23.10;12.48;;;7.70;51.70;;;;;;5093648;28;20378;-77
2022/04/08 06:55:13;;;;;;;23.63;12.67;;;7.80;51.10;;;;;;5095312;28;20406;-76
2022/04/08 06:57:39;;;;;;;24.48;13.38;;;8.00;47.80;;;;;;5095983;28;20486;-74
2022/04/08 07:00:08;;;;;;;23.05;13.88;;;8.00;48.40;;;;;;5095293;28;20408;-75
2022/04/08 07:02:33;;;;;;;20.30;12.02;;;8.00;47.70;;;;;;5095521;28;20430;-77
2022/04/08 07:04:59;;;;;;;29.40;13.23;;;8.10;45.90;;;;;;5097419;28;20877;-75
2022/04/08 07:07:29;;;;;;;22.63;11.38;;;8.20;46.50;;;;;;5081537;28;20466;-75
2022/04/08 07:09:57;;;;;;;19.98;10.68;;;8.30;45.90;;;;;;5080235;28;20382;-75
2022/04/08 07:12:23;;;;;;;17.00;10.90;;;8.30;44.10;;;;;;5095844;28;20385;-76
2022/04/08 07:14:49;;;;;;;24.17;10.32;;;8.40;43.00;;;;;;5096357;28;20377;-75
2022/04/08 07:17:14;;;;;;;23.33;10.60;;;8.50;42.10;;;;;;5096900;28;20382;-75
2022/04/08 07:19:40;;;;;;;21.40;10.67;;;8.50;41.20;;;;;;5077421;28;20897;-76
2022/04/08 07:22:05;;;;;;;23.67;11.07;;;8.60;41.40;;;;;;5094662;28;20905;-75
2022/04/08 07:24:31;;;;;;;21.80;10.63;;;8.80;41.30;;;;;;5095305;28;20715;-76
2022/04/08 07:26:56;;;;;;;17.27;9.87;;;9.00;39.60;;;;;;5095926;28;20761;-76
2022/04/08 07:29:22;;;;;;;15.70;10.23;;;9.10;38.50;;;;;;5096789;28;20396;-76
2022/04/08 07:31:48;;;;;;;17.70;10.13;;;9.10;38.70;;;;;;5095251;28;20394;-75
2022/04/08 07:34:13;;;;;;;14.97;9.73;;;9.30;38.30;;;;;;5095896;28;20481;-76
2022/04/08 07:36:39;;;;;;;17.95;9.00;;;9.20;37.40;;;;;;5077454;28;20394;-76
2022/04/08 07:39:04;;;;;;;19.33;9.88;;;9.30;34.90;;;;;;5095693;28;20443;-76
2022/04/08 07:41:30;;;;;;;15.13;10.73;;;9.10;36.10;;;;;;5096177;28;20374;-76
2022/04/08 07:43:56;;;;;;;15.70;9.60;;;9.20;37.80;;;;;;5096455;28;20410;-76
2022/04/08 07:46:21;;;;;;;21.35;10.52;;;9.40;36.10;;;;;;5100157;28;20398;-75
2022/04/08 07:48:47;;;;;;;20.35;9.80;;;9.60;36.00;;;;;;5108386;22;20855;-75
2022/04/08 07:51:12;;;;;;;16.93;9.87;;;9.70;35.10;;;;;;5057247;28;20392;-74
2022/04/08 07:53:38;;;;;;;13.55;8.65;;;9.80;34.90;;;;;;5057298;28;20870;-74
2022/04/08 07:56:04;;;;;;;18.95;9.43;;;9.70;33.50;;;;;;5056851;28;20959;-74
2022/04/08 07:58:30;;;;;;;11.52;7.50;;;9.70;34.20;;;;;;5055956;28;20687;-74
2022/04/08 08:00:55;;;;;;;14.30;7.53;;;9.80;31.80;;;;;;5040313;28;20378;-74
2022/04/08 08:03:21;;;;;;;13.87;7.10;;;9.80;32.10;;;;;;5042764;28;20386;-74
2022/04/08 08:05:47;;;;;;;11.67;6.97;;;9.80;30.60;;;;;;5065254;28;20938;-74
2022/04/08 08:08:13;;;;;;;12.65;7.55;;;9.80;30.10;;;;;;5062002;28;20382;-74
2022/04/08 08:10:58;;;;;;;11.67;6.87;;;9.70;30.60;;;;;;5064289;28;20396;-76
2022/04/08 08:13:24;;;;;;;10.95;6.80;;;9.60;30.00;;;;;;5046421;28;20394;-76
2022/04/08 08:15:54;;;;;;;11.20;6.10;;;9.60;29.30;;;;;;5049812;28;20409;-75
2022/04/08 08:18:21;;;;;;;13.45;6.78;;;9.60;29.20;;;;;;5046730;28;20405;-74
2022/04/08 08:20:48;;;;;;;15.80;7.30;;;9.70;29.80;;;;;;5062397;28;20389;-74
2022/04/08 08:23:13;;;;;;;15.13;7.40;;;9.70;31.10;;;;;;5063022;28;20392;-74
2022/04/08 08:25:40;;;;;;;15.75;8.23;;;9.80;30.30;;;;;;5044880;28;20393;-75
2022/04/08 08:28:06;;;;;;;18.00;9.70;;;9.90;30.70;;;;;;5062206;28;20451;-74
2022/04/08 08:30:32;;;;;;;14.63;6.53;;;10.10;30.80;;;;;;5043639;28;20382;-74
2022/04/08 08:33:04;;;;;;;12.57;6.70;;;10.00;26.70;;;;;;5062366;28;20378;-76
2022/04/08 08:35:30;;;;;;;11.82;5.95;;;9.90;27.40;;;;;;5060407;28;20488;-74
2022/04/08 08:37:56;;;;;;;10.37;5.07;;;9.90;26.70;;;;;;5060179;28;20385;-73
2022/04/08 08:40:22;;;;;;;17.70;6.10;;;9.90;25.40;;;;;;5060999;28;20378;-75
2022/04/08 08:42:47;;;;;;;10.20;6.20;;;10.00;26.00;;;;;;5062333;28;20405;-75
2022/04/08 08:45:14;;;;;;;12.25;6.90;;;10.10;27.00;;;;;;5063743;28;20844;-75
2022/04/08 08:47:40;;;;;;;13.88;6.20;;;10.20;26.40;;;;;;5046109;28;20396;-72
2022/04/08 08:50:09;;;;;;;9.87;6.33;;;10.20;26.10;;;;;;5064767;28;20461;-75
2022/04/08 08:52:35;;;;;;;11.23;6.60;;;10.10;27.60;;;;;;5045078;28;20889;-76
2022/04/08 08:55:06;;;;;;;15.77;7.23;;;10.30;27.30;;;;;;5069249;28;20390;-76
2022/04/08 08:57:32;;;;;;;11.47;6.50;;;10.40;27.40;;;;;;5048051;28;20400;-75
2022/04/08 09:00:06;;;;;;;13.73;6.50;;;10.40;26.40;;;;;;5061360;28;20385;-75
2022/04/08 09:02:31;;;;;;;15.57;6.20;;;10.50;25.60;;;;;;5065072;28;20385;-74
2022/04/08 09:04:57;;;;;;;14.20;6.40;;;10.60;24.90;;;;;;5062307;28;20396;-76
2022/04/08 09:07:27;;;;;;;9.60;6.00;;;10.60;24.40;;;;;;5041133;28;20389;-76
2022/04/08 09:09:54;;;;;;;9.13;5.53;;;10.60;25.00;;;;;;5061755;28;20397;-74
2022/04/08 09:12:23;;;;;;;11.13;5.70;;;10.80;23.60;;;;;;5062207;28;20439;-73
2022/04/08 09:14:50;;;;;;;11.82;5.20;;;10.70;21.90;;;;;;5062845;28;20373;-75
2022/04/08 09:17:27;;;;;;;12.47;6.03;;;10.90;21.80;;;;;;5045010;28;20392;-74
2022/04/08 09:19:58;;;;;;;16.65;6.60;;;11.10;22.30;;;;;;5062005;28;20373;-73
2022/04/08 09:22:29;;;;;;;11.70;6.23;;;11.40;22.40;;;;;;5043688;28;20382;-73
2022/04/08 09:25:11;;;;;;;12.80;6.93;;;11.40;22.80;;;;;;5042908;28;20385;-74
2022/04/08 09:27:38;;;;;;;10.55;6.07;;;11.70;21.20;;;;;;5060990;28;20853;-74
2022/04/08 09:30:04;;;;;;;13.60;6.00;;;11.70;19.40;;;;;;5043886;28;20373;-74
2022/04/08 09:32:30;;;;;;;12.60;6.30;;;11.70;20.00;;;;;;5060071;28;20370;-76
2022/04/08 09:34:56;;;;;;;13.30;6.57;;;11.90;19.30;;;;;;5043154;28;20385;-75
2022/04/08 09:37:21;;;;;;;11.40;6.57;;;11.80;19.30;;;;;;5041668;28;20512;-75
2022/04/08 09:40:00;;;;;;;14.27;6.82;;;11.70;19.60;;;;;;5057818;28;20389;-74
2022/04/08 09:42:44;;;;;;;10.77;5.93;;;11.70;19.80;;;;;;5058017;28;20438;-75
2022/04/08 09:45:11;;;;;;;12.83;5.67;;;11.80;19.00;;;;;;5042437;28;20385;-74
2022/04/08 09:47:38;;;;;;;11.68;6.35;;;11.80;18.90;;;;;;5042627;28;20381;-76
2022/04/08 09:50:05;;;;;;;12.93;7.00;;;11.90;19.10;;;;;;5056548;28;20408;-73
2022/04/08 09:52:31;;;;;;;12.57;6.50;;;12.00;19.00;;;;;;5054192;28;20381;-73
2022/04/08 09:55:00;;;;;;;9.40;5.63;;;12.10;18.20;;;;;;5037500;28;20721;-74
2022/04/08 09:57:29;;;;;;;9.38;5.45;;;12.00;17.40;;;;;;5033400;28;20398;-75
2022/04/08 09:59:58;;;;;;;11.80;5.37;;;12.00;18.00;;;;;;5015252;28;20391;-72
2022/04/08 10:02:28;;;;;;;9.35;4.90;;;11.90;17.50;;;;;;5033430;28;20949;-75
2022/04/08 10:04:55;;;;;;;10.18;4.68;;;11.90;16.70;;;;;;5033525;28;20390;-72
2022/04/08 10:07:21;;;;;;;5.65;3.92;;;12.00;15.80;;;;;;5032984;28;20873;-73
2022/04/08 10:10:06;;;;;;;6.60;4.00;;;11.80;15.30;;;;;;5032991;28;20387;-73
2022/04/08 10:13:21;;;;;;;9.35;4.60;;;11.60;16.10;;;;;;5032446;28;20391;-74
2022/04/08 10:16:07;;;;;;;9.77;4.93;;;11.50;17.90;;;;;;5032841;28;20405;-73
2022/04/08 10:18:35;;;;;;;8.93;4.57;;;11.40;19.00;;;;;;5032704;28;20391;-74
2022/04/08 10:21:00;;;;;;;9.45;4.60;;;11.20;19.00;;;;;;5014521;28;20395;-74
2022/04/08 10:23:38;;;;;;;6.90;4.97;;;11.20;19.50;;;;;;5032328;28;20437;-74
2022/04/08 10:26:05;;;;;;;11.65;5.22;;;11.30;19.60;;;;;;5014092;28;20391;-73
2022/04/08 10:28:38;;;;;;;8.87;5.00;;;11.30;19.60;;;;;;5035521;28;20462;-73
2022/04/08 10:31:23;;;;;;;6.53;4.60;;;11.30;19.30;;;;;;5036317;28;20387;-74
2022/04/08 10:33:53;;;;;;;8.45;4.40;;;11.30;19.20;;;;;;5036997;28;20482;-73
2022/04/08 10:36:30;;;;;;;7.50;4.30;;;11.50;19.30;;;;;;5036186;28;20433;-75
2022/04/08 10:39:12;;;;;;;8.90;4.05;;;11.50;18.70;;;;;;5036336;28;20445;-73
2022/04/08 10:41:55;;;;;;;4.60;3.85;;;11.60;18.40;;;;;;5018083;28;20395;-75
2022/04/08 10:44:41;;;;;;;4.70;3.40;;;11.40;19.00;;;;;;5038264;28;20387;-72
2022/04/08 10:47:15;;;;;;;10.70;3.50;;;11.40;17.40;;;;;;5019575;28;20482;-75
2022/04/08 10:50:00;;;;;;;8.63;4.40;;;11.30;18.00;;;;;;5039321;28;20423;-75
2022/04/08 10:52:29;;;;;;;6.20;3.60;;;11.20;18.50;;;;;;5035744;28;20399;-73
2022/04/08 10:55:13;;;;;;;4.60;3.10;;;11.20;18.30;;;;;;5034756;28;20508;-75
2022/04/08 10:57:41;;;;;;;5.20;3.53;;;11.20;18.00;;;;;;5057188;28;20392;-72
2022/04/08 11:00:17;;;;;;;8.70;4.60;;;11.10;18.80;;;;;;5040356;28;20480;-74
2022/04/08 11:02:45;;;;;;;8.85;4.45;;;11.20;19.40;;;;;;5041779;28;20393;-74
2022/04/08 11:05:13;;;;;;;8.13;4.30;;;11.30;19.30;;;;;;5057423;28;20413;-73
2022/04/08 11:07:43;;;;;;;15.95;5.10;;;11.30;19.10;;;;;;5056045;28;20385;-74
2022/04/08 11:10:14;;;;;;;10.05;4.10;;;11.20;19.20;;;;;;5037925;28;20400;-73
2022/04/08 11:12:56;;;;;;;8.87;4.50;;;11.30;19.70;;;;;;5056011;28;20459;-76
2022/04/08 11:15:24;;;;;;;9.40;5.10;;;11.50;19.10;;;;;;5056861;28;20436;-73
2022/04/08 11:17:52;;;;;;;8.75;5.18;;;11.60;19.00;;;;;;5056961;28;20696;-73
2022/04/08 11:20:19;;;;;;;9.70;5.30;;;11.80;18.60;;;;;;5055474;28;20897;-74
2022/04/08 11:22:48;;;;;;;7.40;4.80;;;11.80;18.90;;;;;;5055990;28;20385;-74
2022/04/08 11:25:28;;;;;;;9.60;5.07;;;11.70;17.90;;;;;;5038006;28;20385;-74
2022/04/08 11:27:57;;;;;;;11.25;5.05;;;11.80;17.50;;;;;;5057287;28;20388;-74
2022/04/08 11:30:24;;;;;;;9.10;5.15;;;12.00;17.50;;;;;;5039072;28;20534;-74
2022/04/08 11:32:50;;;;;;;9.13;5.28;;;12.20;17.10;;;;;;5055934;28;20385;-74
2022/04/08 11:35:15;;;;;;;8.90;5.30;;;12.30;17.00;;;;;;5056817;28;20424;-74
2022/04/08 11:37:41;;;;;;;10.35;4.70;;;12.50;15.90;;;;;;5054345;28;20381;-75
2022/04/08 11:40:08;;;;;;;6.53;5.30;;;12.40;14.90;;;;;;5059977;28;20381;-74
2022/04/08 11:42:33;;;;;;;8.07;5.40;;;12.20;15.10;;;;;;5059110;28;20377;-73
2022/04/08 11:45:00;;;;;;;8.77;5.33;;;12.10;15.70;;;;;;5042105;28;20804;-75
2022/04/08 11:47:32;;;;;;;7.78;5.55;;;12.00;15.90;;;;;;5039841;28;20397;-74
2022/04/08 11:50:04;;;;;;;10.85;5.80;;;11.90;16.30;;;;;;5056288;28;20400;-75
2022/04/08 11:52:29;;;;;;;7.10;5.50;;;11.90;16.70;;;;;;5056675;28;20479;-74
2022/04/08 11:55:05;;;;;;;11.70;5.30;;;12.10;15.90;;;;;;5040843;28;20398;-74
2022/04/08 11:57:33;;;;;;;6.95;5.00;;;12.10;15.90;;;;;;5018903;28;20411;-74
2022/04/08 12:00:01;;;;;;;7.82;4.85;;;12.20;15.30;;;;;;5018692;28;20488;-73
2022/04/08 12:02:29;;;;;;;6.07;4.95;;;12.00;15.10;;;;;;5018067;28;20394;-77
2022/04/08 12:04:54;;;;;;;6.10;4.20;;;12.00;15.30;;;;;;5018081;28;20852;-74
2022/04/08 12:07:28;;;;;;;9.68;4.75;;;12.00;14.20;;;;;;5035351;28;20409;-75
2022/04/08 12:09:54;;;;;;;6.20;4.70;;;12.00;14.20;;;;;;5042347;28;20889;-74
2022/04/08 12:12:28;;;;;;;9.37;5.00;;;12.20;14.70;;;;;;5036971;28;20694;-73
2022/04/08 12:14:54;;;;;;;8.85;4.60;;;12.30;15.00;;;;;;5037839;28;20436;-76
2022/04/08 12:17:20;;;;;;;7.07;4.35;;;12.30;13.80;;;;;;5040229;28;21016;-73
2022/04/08 12:19:51;;;;;;;7.57;4.00;;;12.40;14.70;;;;;;5040432;28;20905;-74
2022/04/08 12:22:18;;;;;;;10.13;5.03;;;12.40;14.80;;;;;;5036317;28;20884;-74
2022/04/08 12:24:44;;;;;;;7.22;4.30;;;12.40;14.80;;;;;;5053846;28;20393;-74
2022/04/08 12:27:22;;;;;;;5.03;3.75;;;12.60;14.70;;;;;;5056571;28;20465;-73
2022/04/08 12:30:08;;;;;;;7.43;3.70;;;12.70;13.10;;;;;;5058902;28;20664;-75
2022/04/08 12:32:37;;;;;;;10.38;4.40;;;12.50;12.10;;;;;;5062762;28;20393;-75
2022/04/08 12:35:06;;;;;;;7.45;3.90;;;12.20;12.10;;;;;;5062937;28;20412;-74
2022/04/08 12:37:32;;;;;;;5.85;3.90;;;12.20;12.90;;;;;;5062144;28;20390;-73
2022/04/08 12:39:58;;;;;;;9.90;4.47;;;12.20;13.60;;;;;;5040612;28;20388;-73
2022/04/08 12:42:24;;;;;;;11.55;4.57;;;12.10;14.00;;;;;;5055806;28;20405;-74
2022/04/08 12:44:50;;;;;;;6.78;4.18;;;12.20;13.30;;;;;;5055288;28;20843;-74
2022/04/08 12:47:15;;;;;;;10.40;4.18;;;12.20;14.40;;;;;;5037416;28;20435;-73